Time;durP1;ratioP1;P1;durP2;ratioP2;P2;SDS_P1;SDS_P2;PMS_P1;PMS_P2;Temp;Humidity;BMP_temperature;BMP_pressure;BME280_temperature;BME280_humidity;BME280_pressure;Samples;Min_cycle;Max_cycle;Signal;HPM_P1;HPM_P2
2021/01/28 00:00:12;;;;;;;24.20;10.47;;;-1.50;99.90;;;;;;5274907;28;20572;-72
2021/01/28 00:02:43;;;;;;;22.77;10.73;;;-1.50;99.90;;;;;;5274672;28;20189;-71
2021/01/28 00:05:16;;;;;;;23.93;11.63;;;-1.50;99.90;;;;;;5273599;28;20603;-72
2021/01/28 00:07:47;;;;;;;22.27;10.47;;;-1.50;99.90;;;;;;5273264;28;20522;-72
2021/01/28 00:10:20;;;;;;;24.20;11.27;;;-1.50;99.90;;;;;;5272045;28;20307;-73
2021/01/28 00:12:52;;;;;;;26.83;11.83;;;-1.50;99.90;;;;;;5271931;28;20202;-73
2021/01/28 00:15:26;;;;;;;24.00;10.97;;;-1.50;99.90;;;;;;5272277;28;20188;-74
2021/01/28 00:17:59;;;;;;;21.87;11.13;;;-1.50;99.90;;;;;;5271544;28;20203;-73
2021/01/28 00:20:34;;;;;;;23.27;12.43;;;-1.50;99.90;;;;;;5271547;28;20215;-73
2021/01/28 00:23:06;;;;;;;30.30;13.50;;;-1.50;99.90;;;;;;5271738;28;20203;-72
2021/01/28 00:25:39;;;;;;;30.10;13.60;;;-1.50;99.90;;;;;;5272034;28;20242;-72
2021/01/28 00:28:13;;;;;;;25.67;12.07;;;-1.50;99.90;;;;;;5273131;28;20624;-76
2021/01/28 00:30:50;;;;;;;28.10;12.73;;;-1.50;99.90;;;;;;5271689;28;20198;-74
2021/01/28 00:33:24;;;;;;;28.60;12.57;;;-1.50;99.90;;;;;;5271556;28;20205;-74
2021/01/28 00:35:57;;;;;;;29.07;13.63;;;-1.50;99.90;;;;;;5253420;28;20213;-75
2021/01/28 00:38:31;;;;;;;30.93;13.60;;;-1.50;99.90;;;;;;5271297;28;20629;-73
2021/01/28 00:41:05;;;;;;;32.20;15.37;;;-1.50;99.90;;;;;;5271005;28;20620;-74
2021/01/28 00:43:38;;;;;;;29.23;13.63;;;-1.50;99.90;;;;;;5271250;28;20194;-74
2021/01/28 00:46:09;;;;;;;28.40;14.47;;;-1.50;99.90;;;;;;5253302;28;20268;-73
2021/01/28 00:48:41;;;;;;;33.93;14.20;;;-1.50;99.90;;;;;;5270742;28;20283;-74
2021/01/28 00:51:13;;;;;;;32.27;14.33;;;-1.50;99.90;;;;;;5271994;28;20207;-73
2021/01/28 00:53:44;;;;;;;32.60;14.97;;;-1.50;99.90;;;;;;5270941;28;20314;-74
2021/01/28 00:56:16;;;;;;;29.53;13.80;;;-1.50;99.90;;;;;;5270803;28;20195;-73
2021/01/28 00:58:49;;;;;;;35.77;15.30;;;-1.50;99.90;;;;;;5272529;28;20551;-73
2021/01/28 01:01:20;;;;;;;30.07;14.73;;;-1.50;99.90;;;;;;5271057;28;20289;-73
2021/01/28 01:03:52;;;;;;;31.87;15.73;;;-1.50;99.90;;;;;;5270874;28;20213;-73
2021/01/28 01:06:24;;;;;;;31.20;14.47;;;-1.50;99.90;;;;;;5271466;28;20287;-73
2021/01/28 01:08:55;;;;;;;32.00;14.10;;;-1.40;99.90;;;;;;5275937;28;20244;-74
2021/01/28 01:11:27;;;;;;;30.00;15.30;;;-1.40;99.90;;;;;;5272032;28;20702;-74
2021/01/28 01:13:58;;;;;;;30.10;14.70;;;-1.40;99.90;;;;;;5254895;28;20282;-74
2021/01/28 01:16:30;;;;;;;34.13;16.00;;;-1.40;99.90;;;;;;5271903;28;20195;-75
2021/01/28 01:19:02;;;;;;;30.83;16.23;;;-1.40;99.90;;;;;;5271622;28;20685;-74
2021/01/28 01:21:35;;;;;;;28.47;14.43;;;-1.40;99.90;;;;;;5270566;28;20202;-73
2021/01/28 01:24:07;;;;;;;30.90;14.60;;;-1.40;99.90;;;;;;5270340;28;20685;-73
2021/01/28 01:26:38;;;;;;;31.37;14.97;;;-1.40;99.90;;;;;;5253404;28;20748;-75
2021/01/28 01:29:10;;;;;;;32.27;15.40;;;-1.30;99.90;;;;;;5269943;28;20287;-72
2021/01/28 01:31:41;;;;;;;31.23;14.20;;;-1.30;99.90;;;;;;5270341;28;20187;-73
2021/01/28 01:34:16;;;;;;;31.57;14.77;;;-1.20;99.90;;;;;;5270112;28;20231;-73
2021/01/28 01:36:47;;;;;;;37.53;16.13;;;-1.20;99.90;;;;;;5282064;28;20584;-73
2021/01/28 01:39:19;;;;;;;37.53;16.03;;;-1.20;99.90;;;;;;5272026;28;20556;-73
2021/01/28 01:41:50;;;;;;;39.17;15.83;;;-1.10;99.90;;;;;;5269848;28;20309;-73
2021/01/28 01:44:22;;;;;;;32.47;15.50;;;-1.00;99.90;;;;;;5269878;28;20199;-73
2021/01/28 01:47:00;;;;;;;31.10;14.80;;;-1.00;99.90;;;;;;5281781;28;20214;-72
2021/01/28 01:49:32;;;;;;;30.73;15.20;;;-0.90;99.90;;;;;;5272164;28;20571;-74
2021/01/28 01:52:03;;;;;;;32.50;14.83;;;-0.90;99.90;;;;;;5270117;28;20264;-74
2021/01/28 01:58:46;;;;;;;27.63;13.67;;;-0.80;99.90;;;;;;5269181;28;20661;-73
2021/01/28 02:01:21;;;;;;;30.80;15.37;;;-0.80;99.90;;;;;;5258843;28;20719;-74
2021/01/28 02:03:55;;;;;;;32.60;15.37;;;-0.80;99.90;;;;;;5269786;28;20191;-73
2021/01/28 02:06:50;;;;;;;29.10;14.80;;;-0.80;99.90;;;;;;5269887;28;20223;-73
2021/01/28 02:09:22;;;;;;;30.67;14.43;;;-0.80;99.90;;;;;;5269953;28;20204;-74
2021/01/28 02:16:34;;;;;;;27.73;14.30;;;-0.80;99.90;;;;;;5251127;28;20184;-74
2021/01/28 02:19:33;;;;;;;29.70;14.77;;;-0.80;99.90;;;;;;5251071;28;20213;-72
2021/01/28 02:22:04;;;;;;;31.60;15.23;;;-0.80;99.90;;;;;;5248509;28;20559;-74
2021/01/28 02:24:51;;;;;;;31.63;15.63;;;-0.80;99.90;;;;;;5248781;28;20188;-71
2021/01/28 02:27:23;;;;;;;35.77;17.13;;;-0.80;99.90;;;;;;5248972;28;20204;-75
2021/01/28 02:29:55;;;;;;;32.23;16.17;;;-0.90;99.90;;;;;;5214530;28;20189;-74
2021/01/28 02:32:26;;;;;;;32.93;16.50;;;-0.90;99.90;;;;;;5248753;28;20644;-73
2021/01/28 02:34:58;;;;;;;34.97;15.90;;;-0.90;99.90;;;;;;5248725;28;20192;-74
2021/01/28 02:37:30;;;;;;;33.67;15.53;;;-0.90;99.90;;;;;;5248954;28;20196;-76
2021/01/28 02:40:01;;;;;;;34.80;17.23;;;-1.00;99.90;;;;;;5230749;28;20697;-75
2021/01/28 02:42:33;;;;;;;39.50;17.63;;;-1.00;99.90;;;;;;5248058;28;20193;-72
2021/01/28 02:45:06;;;;;;;36.33;17.77;;;-1.00;99.90;;;;;;5231326;28;20189;-73
2021/01/28 02:47:38;;;;;;;39.53;18.57;;;-1.00;99.90;;;;;;5230337;28;20203;-73
2021/01/28 02:50:10;;;;;;;37.07;17.00;;;-1.00;99.90;;;;;;5248387;28;20196;-73
2021/01/28 02:52:41;;;;;;;37.07;17.80;;;-1.10;99.90;;;;;;5248503;28;20220;-73
2021/01/28 02:55:16;;;;;;;38.17;17.77;;;-1.00;99.90;;;;;;5248924;28;20539;-74
2021/01/28 02:57:47;;;;;;;33.37;17.67;;;-1.10;99.90;;;;;;5231048;28;20202;-74
2021/01/28 03:00:27;;;;;;;41.20;18.57;;;-1.10;99.90;;;;;;5248947;28;20231;-73
2021/01/28 03:02:59;;;;;;;36.77;18.77;;;-1.10;99.90;;;;;;5248823;28;20198;-72
2021/01/28 03:05:31;;;;;;;41.07;19.57;;;-1.10;99.90;;;;;;5248103;28;20287;-74
2021/01/28 03:08:04;;;;;;;38.90;19.03;;;-1.10;99.90;;;;;;5249179;28;20191;-74
2021/01/28 03:10:36;;;;;;;43.30;20.53;;;-1.10;99.90;;;;;;5250425;28;20246;-73
2021/01/28 03:13:09;;;;;;;41.53;20.27;;;-1.00;99.90;;;;;;5251904;28;20225;-72
2021/01/28 03:15:40;;;;;;;47.30;20.43;;;-1.00;99.90;;;;;;5245604;28;20242;-73
2021/01/28 03:18:12;;;;;;;44.67;20.13;;;-1.00;99.90;;;;;;5252789;28;20196;-71
2021/01/28 03:20:44;;;;;;;41.40;19.30;;;-1.00;99.90;;;;;;5252965;28;20221;-72
2021/01/28 03:23:16;;;;;;;48.77;20.63;;;-0.90;99.90;;;;;;5251469;28;20193;-70
2021/01/28 03:25:48;;;;;;;44.27;20.63;;;-1.00;99.90;;;;;;5251721;28;20205;-72
2021/01/28 03:28:19;;;;;;;38.87;19.67;;;-0.90;99.90;;;;;;5252418;28;20193;-71
2021/01/28 03:30:51;;;;;;;41.33;19.40;;;-0.90;99.90;;;;;;5251974;28;20200;-73
2021/01/28 03:33:22;;;;;;;44.30;20.47;;;-0.90;99.90;;;;;;5251637;28;20283;-71
2021/01/28 03:35:54;;;;;;;51.23;21.50;;;-0.90;99.90;;;;;;5251293;28;20280;-71
2021/01/28 03:38:25;;;;;;;41.80;19.40;;;-0.90;99.90;;;;;;5251612;28;20204;-71
2021/01/28 03:40:57;;;;;;;49.07;21.63;;;-0.90;99.90;;;;;;5251736;28;20304;-72
2021/01/28 03:43:29;;;;;;;42.00;21.70;;;-0.90;99.90;;;;;;5251945;28;20189;-70
2021/01/28 03:46:01;;;;;;;42.53;20.60;;;-0.90;99.90;;;;;;5251619;28;20199;-73
2021/01/28 03:48:33;;;;;;;43.00;20.03;;;-0.90;99.90;;;;;;5251907;28;20234;-71
2021/01/28 03:51:05;;;;;;;47.50;21.33;;;-0.80;99.90;;;;;;5251378;28;20290;-72
2021/01/28 03:53:37;;;;;;;45.17;20.57;;;-0.90;99.90;;;;;;5251056;28;20200;-73
2021/01/28 03:56:08;;;;;;;50.37;20.60;;;-0.90;99.90;;;;;;5252919;28;20555;-72
2021/01/28 03:58:42;;;;;;;46.33;22.00;;;-0.80;99.90;;;;;;5251060;28;20196;-71
2021/01/28 04:01:13;;;;;;;42.00;20.37;;;-0.80;99.90;;;;;;5251118;28;20226;-70
2021/01/28 04:03:45;;;;;;;41.80;19.93;;;-0.80;99.90;;;;;;5251254;28;20196;-73
2021/01/28 04:06:16;;;;;;;43.13;20.50;;;-0.80;99.90;;;;;;5251195;28;20635;-71
2021/01/28 04:08:48;;;;;;;44.83;20.50;;;-0.80;99.90;;;;;;5250282;28;20203;-73
2021/01/28 04:11:19;;;;;;;42.27;20.10;;;-0.80;99.90;;;;;;5249452;28;20208;-72
2021/01/28 04:13:50;;;;;;;46.00;21.33;;;-0.80;99.90;;;;;;5251028;28;20209;-71
2021/01/28 04:16:22;;;;;;;45.77;20.93;;;-0.80;99.90;;;;;;5251508;28;20199;-72
2021/01/28 04:18:54;;;;;;;44.73;20.87;;;-0.80;99.90;;;;;;5233571;28;20215;-71
2021/01/28 04:21:25;;;;;;;39.53;20.73;;;-0.80;99.90;;;;;;5249794;28;20226;-72
2021/01/28 04:23:57;;;;;;;42.00;21.03;;;-0.80;99.90;;;;;;5251520;28;20195;-72
2021/01/28 04:26:28;;;;;;;41.80;19.90;;;-0.80;99.90;;;;;;5252874;28;20203;-72
2021/01/28 04:29:00;;;;;;;42.47;21.07;;;-0.80;99.90;;;;;;5253106;28;20189;-70
2021/01/28 04:31:33;;;;;;;44.00;20.33;;;-0.80;99.90;;;;;;5252322;28;20219;-72
2021/01/28 04:34:05;;;;;;;37.67;19.03;;;-0.80;99.90;;;;;;5252951;28;20222;-72
2021/01/28 04:36:36;;;;;;;47.03;20.70;;;-0.80;99.90;;;;;;5252504;28;20214;-71
2021/01/28 04:39:08;;;;;;;39.97;20.20;;;-0.80;99.90;;;;;;5253045;28;20545;-71
2021/01/28 04:41:42;;;;;;;42.57;21.50;;;-0.80;99.90;;;;;;5251837;28;20599;-71
2021/01/28 04:44:14;;;;;;;47.17;21.17;;;-0.80;99.90;;;;;;5261921;28;20208;-73
2021/01/28 04:46:51;;;;;;;40.37;20.23;;;-0.80;99.90;;;;;;5250663;28;20191;-73
2021/01/28 04:49:26;;;;;;;40.80;18.97;;;-0.80;99.90;;;;;;5250380;28;20570;-72
2021/01/28 04:52:04;;;;;;;46.13;20.90;;;-0.80;99.90;;;;;;5250279;28;20196;-71
2021/01/28 04:54:36;;;;;;;45.93;20.43;;;-0.70;99.90;;;;;;5252114;28;20192;-71
2021/01/28 04:57:13;;;;;;;46.03;22.10;;;-0.70;99.90;;;;;;5250478;28;20658;-72
2021/01/28 04:59:49;;;;;;;40.00;21.40;;;-0.70;99.90;;;;;;5249842;28;20225;-74
2021/01/28 05:02:28;;;;;;;47.23;22.57;;;-0.70;99.90;;;;;;5250249;28;20561;-72
2021/01/28 05:05:05;;;;;;;42.80;21.10;;;-0.70;99.90;;;;;;5250926;28;20591;-72
2021/01/28 05:07:36;;;;;;;46.80;22.23;;;-0.70;99.90;;;;;;5251196;28;20201;-72
2021/01/28 05:14:18;;;;;;;44.77;19.47;;;-0.60;99.90;;;;;;5252704;28;20169;-73
2021/01/28 05:16:54;;;;;;;52.43;21.23;;;-0.60;99.90;;;;;;5272745;28;20547;-73
2021/01/28 05:19:40;;;;;;;42.20;19.93;;;-0.60;99.90;;;;;;5273071;28;20675;-73
2021/01/28 05:22:27;;;;;;;40.70;21.23;;;-0.60;99.90;;;;;;5271143;28;20575;-73
2021/01/28 05:25:09;;;;;;;47.50;21.97;;;-0.60;99.90;;;;;;5270541;28;20190;-72
2021/01/28 05:31:37;;;;;;;43.83;21.30;;;-0.50;99.90;;;;;;5270718;28;20304;-72
2021/01/28 05:34:12;;;;;;;43.33;21.70;;;-0.50;99.90;;;;;;5271053;28;20604;-74
2021/01/28 05:36:58;;;;;;;50.60;24.47;;;-0.50;99.90;;;;;;5254484;28;20202;-71
2021/01/28 05:39:34;;;;;;;48.70;22.37;;;-0.50;99.90;;;;;;5270141;28;20231;-73
2021/01/28 05:42:17;;;;;;;52.93;24.47;;;-0.50;99.90;;;;;;5269732;28;20192;-73
2021/01/28 05:44:50;;;;;;;48.53;24.37;;;-0.50;99.90;;;;;;5270129;28;20555;-74
2021/01/28 05:47:24;;;;;;;52.47;24.83;;;-0.50;99.90;;;;;;5270024;28;20188;-70
2021/01/28 05:50:16;;;;;;;56.27;25.37;;;-0.50;99.90;;;;;;5270106;28;20642;-70
2021/01/28 05:52:48;;;;;;;49.80;23.80;;;-0.50;99.90;;;;;;5269616;28;20192;-69
2021/01/28 05:55:23;;;;;;;49.80;24.37;;;-0.50;99.90;;;;;;5252043;28;20549;-72
2021/01/28 05:58:26;;;;;;;51.57;25.27;;;-0.50;99.90;;;;;;5269926;28;20194;-71
2021/01/28 06:01:22;;;;;;;53.90;25.90;;;-0.50;99.90;;;;;;5205503;28;20807;-76
2021/01/28 06:03:57;;;;;;;53.27;26.57;;;-0.50;99.90;;;;;;5205145;28;20599;-73
2021/01/28 06:07:01;;;;;;;56.93;26.13;;;-0.50;99.90;;;;;;5189849;28;20544;-73
2021/01/28 06:10:16;;;;;;;52.10;24.20;;;-0.60;99.90;;;;;;5205479;28;20293;-74
2021/01/28 06:16:49;;;;;;;53.00;24.90;;;-0.60;99.90;;;;;;5104579;29;20264;-73
2021/01/28 06:19:43;;;;;;;56.97;26.77;;;-0.60;99.90;;;;;;5104231;29;20197;-75
2021/01/28 06:22:43;;;;;;;53.70;25.77;;;-0.60;99.90;;;;;;5089501;29;20201;-73
2021/01/28 06:29:48;;;;;;;53.40;26.27;;;-0.60;99.90;;;;;;5028234;29;20219;-74
2021/01/28 06:33:06;;;;;;;56.77;25.47;;;-0.60;99.90;;;;;;5027442;29;20215;-76
2021/01/28 06:35:57;;;;;;;52.53;23.97;;;-0.60;99.90;;;;;;5026948;29;20264;-74
2021/01/28 06:39:07;;;;;;;58.63;26.73;;;-0.60;99.90;;;;;;5065000;29;20301;-74
2021/01/28 06:41:55;;;;;;;55.50;26.47;;;-0.60;99.90;;;;;;5065346;29;20213;-77
2021/01/28 06:45:04;;;;;;;54.10;25.83;;;-0.60;99.90;;;;;;5066008;29;20638;-75
2021/01/28 06:47:58;;;;;;;54.57;27.23;;;-0.60;99.90;;;;;;5118001;29;20315;-75
2021/01/28 06:50:45;;;;;;;64.77;29.37;;;-0.60;99.90;;;;;;5105545;29;20267;-74
2021/01/28 06:53:29;;;;;;;54.40;28.37;;;-0.60;99.90;;;;;;5127787;29;20220;-74
2021/01/28 07:00:04;;;;;;;65.23;30.77;;;-0.60;99.90;;;;;;5127561;29;20542;-76
2021/01/28 07:02:57;;;;;;;69.60;30.90;;;-0.60;99.90;;;;;;5125464;29;20201;-73
2021/01/28 07:05:44;;;;;;;71.93;31.17;;;-0.60;99.90;;;;;;5206775;28;20211;-75
2021/01/28 07:08:31;;;;;;;73.07;33.17;;;-0.60;99.90;;;;;;5255936;28;20215;-74
2021/01/28 07:11:07;;;;;;;70.00;32.77;;;-0.60;99.90;;;;;;5250465;28;20204;-74
2021/01/28 07:13:39;;;;;;;74.17;34.10;;;-0.60;99.90;;;;;;5252413;28;20566;-74
2021/01/28 07:16:25;;;;;;;77.63;34.37;;;-0.60;99.90;;;;;;5269788;28;20231;-75
2021/01/28 07:19:20;;;;;;;78.73;34.80;;;-0.60;99.90;;;;;;5272598;28;20279;-73
2021/01/28 07:21:54;;;;;;;65.90;32.00;;;-0.60;99.90;;;;;;5272721;28;20204;-75
2021/01/28 07:24:33;;;;;;;74.20;34.43;;;-0.50;99.90;;;;;;5271022;28;20188;-74
2021/01/28 07:27:12;;;;;;;75.00;34.20;;;-0.50;99.90;;;;;;5254590;28;20188;-74
2021/01/28 07:29:43;;;;;;;65.27;34.03;;;-0.50;99.90;;;;;;5273077;28;20613;-75
2021/01/28 07:32:21;;;;;;;71.17;35.37;;;-0.50;99.90;;;;;;5272934;28;20189;-74
2021/01/28 07:35:27;;;;;;;74.87;35.63;;;-0.50;99.90;;;;;;5272809;28;20188;-76
2021/01/28 07:38:27;;;;;;;79.47;36.70;;;-0.50;99.90;;;;;;5273309;28;20263;-74
2021/01/28 07:44:59;;;;;;;71.97;33.77;;;-0.50;99.90;;;;;;5273642;28;20175;-75
2021/01/28 07:47:31;;;;;;;75.77;35.50;;;-0.50;99.90;;;;;;5273676;28;20191;-74
2021/01/28 07:50:21;;;;;;;72.87;34.80;;;-0.50;99.90;;;;;;5270675;28;20189;-75
2021/01/28 07:52:52;;;;;;;72.90;34.07;;;-0.50;99.90;;;;;;5272809;28;20545;-74
2021/01/28 07:55:39;;;;;;;72.63;34.70;;;-0.40;99.90;;;;;;5272782;28;20195;-73
2021/01/28 08:02:28;;;;;;;67.00;31.53;;;-0.40;99.90;;;;;;5272560;28;20183;-76
2021/01/28 08:05:08;;;;;;;62.67;31.63;;;-0.40;99.90;;;;;;5206904;28;20654;-73
2021/01/28 08:07:45;;;;;;;64.73;31.77;;;-0.40;99.90;;;;;;5207412;28;20198;-74
2021/01/28 08:10:26;;;;;;;66.53;32.57;;;-0.40;99.90;;;;;;5207574;28;20228;-74
2021/01/28 08:13:04;;;;;;;67.10;31.20;;;-0.30;99.90;;;;;;5207102;28;20209;-74
2021/01/28 08:15:44;;;;;;;62.50;30.97;;;-0.30;99.90;;;;;;5208178;28;20230;-74
2021/01/28 08:18:30;;;;;;;67.27;32.50;;;-0.30;99.90;;;;;;5209793;28;20200;-73
2021/01/28 08:21:13;;;;;;;63.50;31.87;;;-0.30;99.90;;;;;;5208072;28;20222;-73
2021/01/28 08:23:45;;;;;;;62.73;30.27;;;-0.30;99.90;;;;;;5209626;28;20206;-74
2021/01/28 08:30:16;;;;;;;59.77;28.27;;;-0.20;99.90;;;;;;5209948;28;20224;-72
2021/01/28 08:32:58;;;;;;;60.90;28.93;;;-0.20;99.90;;;;;;5209019;28;20204;-73
2021/01/28 08:35:37;;;;;;;59.20;30.37;;;-0.20;99.90;;;;;;5192886;28;20209;-73
2021/01/28 08:38:46;;;;;;;56.10;28.63;;;-0.20;99.90;;;;;;5206862;28;20190;-74
2021/01/28 08:45:25;;;;;;;54.47;28.50;;;-0.10;99.90;;;;;;5209288;28;20232;-73
2021/01/28 08:47:59;;;;;;;56.00;29.10;;;-0.10;99.90;;;;;;5207726;28;20206;-74
2021/01/28 08:50:32;;;;;;;55.17;27.47;;;-0.10;99.90;;;;;;5206373;28;20233;-74
2021/01/28 08:53:15;;;;;;;53.43;27.43;;;-0.10;99.90;;;;;;5206630;28;20581;-76
2021/01/28 08:55:47;;;;;;;55.67;28.53;;;-0.10;99.90;;;;;;5192250;28;20209;-74
2021/01/28 09:02:04;;;;;;;52.83;27.23;;;0.00;99.90;;;;;;5204938;28;20189;-73
2021/01/28 09:04:39;;;;;;;54.27;28.37;;;0.10;99.90;;;;;;5206036;28;20210;-73
2021/01/28 09:07:53;;;;;;;56.73;29.37;;;0.10;99.90;;;;;;5206568;28;20690;-74
2021/01/28 09:10:35;;;;;;;57.93;28.73;;;0.10;99.90;;;;;;5166040;28;20211;-74
2021/01/28 09:13:29;;;;;;;52.77;27.73;;;0.10;99.90;;;;;;5167799;28;20250;-74
2021/01/28 09:16:13;;;;;;;51.77;26.93;;;0.10;99.90;;;;;;5171497;28;20246;-70
2021/01/28 09:18:47;;;;;;;49.27;26.10;;;0.20;99.90;;;;;;5187536;28;20201;-72
2021/01/28 09:21:24;;;;;;;53.47;27.83;;;0.20;99.90;;;;;;5184955;28;20637;-72
2021/01/28 09:24:04;;;;;;;46.53;24.40;;;0.20;99.90;;;;;;5186223;28;20190;-71
2021/01/28 09:30:29;;;;;;;54.40;25.53;;;0.20;99.90;;;;;;5186952;28;20648;-75
2021/01/28 09:33:29;;;;;;;56.60;26.77;;;0.30;99.90;;;;;;5185907;28;20202;-72
2021/01/28 09:36:10;;;;;;;48.50;25.37;;;0.30;99.90;;;;;;5167777;28;20227;-71
2021/01/28 09:38:59;;;;;;;49.77;27.37;;;0.30;99.90;;;;;;5184656;28;20194;-71
2021/01/28 09:41:48;;;;;;;48.03;25.80;;;0.30;99.90;;;;;;5184654;28;20226;-73
2021/01/28 09:44:39;;;;;;;46.93;23.87;;;0.30;99.90;;;;;;5185043;28;20232;-71
2021/01/28 09:47:21;;;;;;;53.80;25.20;;;0.40;99.90;;;;;;5210007;28;20200;-72
2021/01/28 09:49:56;;;;;;;51.13;25.87;;;0.40;99.90;;;;;;5247004;28;20600;-72
2021/01/28 09:52:31;;;;;;;45.33;23.67;;;0.50;99.90;;;;;;5246269;28;20547;-71
2021/01/28 09:55:24;;;;;;;41.10;21.20;;;0.50;99.90;;;;;;5248905;28;20195;-69
2021/01/28 09:57:56;;;;;;;39.13;21.57;;;0.50;99.90;;;;;;5247474;28;20223;-72
2021/01/28 10:00:28;;;;;;;43.03;21.20;;;0.50;99.90;;;;;;5248189;28;20265;-72
2021/01/28 10:03:05;;;;;;;37.93;20.70;;;0.50;99.90;;;;;;5248257;28;20670;-71
2021/01/28 10:05:37;;;;;;;44.37;21.33;;;0.50;99.90;;;;;;5248769;28;20219;-71
2021/01/28 10:08:09;;;;;;;35.00;20.40;;;0.60;99.90;;;;;;5248046;28;20288;-70
2021/01/28 10:10:41;;;;;;;36.93;21.30;;;0.60;99.90;;;;;;5247694;28;20224;-71
2021/01/28 10:13:15;;;;;;;38.20;20.37;;;0.60;99.90;;;;;;5247538;28;20197;-70
2021/01/28 10:15:48;;;;;;;42.10;21.57;;;0.60;99.90;;;;;;5260424;28;20227;-72
2021/01/28 10:18:19;;;;;;;36.50;19.43;;;0.70;99.90;;;;;;5267672;28;20192;-72
2021/01/28 10:20:51;;;;;;;36.57;19.77;;;0.70;99.90;;;;;;5268092;28;20219;-72
2021/01/28 10:23:22;;;;;;;34.37;20.10;;;0.80;99.90;;;;;;5268847;28;20199;-71
2021/01/28 10:25:54;;;;;;;35.43;19.13;;;0.90;99.90;;;;;;5268833;28;20203;-74
2021/01/28 10:28:25;;;;;;;33.93;19.50;;;0.90;99.90;;;;;;5269078;28;20195;-71
2021/01/28 10:30:57;;;;;;;39.70;24.08;;;1.00;99.90;;;;;;5268850;28;20446;-73
2021/01/28 10:33:30;;;;;;;36.87;19.63;;;1.10;99.90;;;;;;5269674;28;20199;-71
2021/01/28 10:36:02;;;;;;;32.67;18.37;;;1.20;99.90;;;;;;5250919;28;20227;-75
2021/01/28 10:38:38;;;;;;;31.53;17.83;;;1.20;99.90;;;;;;5269308;28;20188;-69
2021/01/28 10:41:09;;;;;;;30.47;17.13;;;1.40;99.90;;;;;;5251043;28;20230;-76
2021/01/28 10:43:41;;;;;;;30.23;14.97;;;1.50;99.90;;;;;;5269833;28;20188;-73
2021/01/28 10:46:13;;;;;;;26.00;15.77;;;1.50;99.90;;;;;;5268551;28;20358;-72
2021/01/28 10:48:45;;;;;;;36.03;15.67;;;1.60;99.90;;;;;;5267144;28;20192;-72
2021/01/28 10:51:17;;;;;;;27.77;15.43;;;1.70;99.90;;;;;;5250688;28;20193;-73
2021/01/28 10:53:48;;;;;;;28.53;14.37;;;1.70;99.90;;;;;;5269883;28;20218;-72
2021/01/28 10:56:20;;;;;;;25.60;14.17;;;1.80;99.90;;;;;;5268673;28;20212;-72
2021/01/28 10:58:52;;;;;;;23.43;13.00;;;1.80;99.90;;;;;;5251612;28;20600;-72
2021/01/28 11:01:24;;;;;;;21.40;12.40;;;1.80;99.90;;;;;;5269136;28;20216;-72
2021/01/28 11:03:56;;;;;;;19.87;11.73;;;1.90;99.90;;;;;;5268708;28;20189;-71
2021/01/28 11:06:27;;;;;;;23.90;11.07;;;2.20;99.90;;;;;;5250829;28;20650;-72
2021/01/28 11:08:59;;;;;;;17.87;11.10;;;2.30;99.90;;;;;;5267994;28;20207;-72
2021/01/28 11:11:31;;;;;;;17.38;11.70;;;2.50;99.90;;;;;;5266533;28;20469;-72
2021/01/28 11:14:02;;;;;;;16.93;9.50;;;2.70;99.90;;;;;;5266534;28;20212;-73
2021/01/28 11:16:35;;;;;;;15.07;8.37;;;2.80;99.90;;;;;;5267852;28;20331;-72
2021/01/28 11:19:11;;;;;;;13.80;8.47;;;2.80;99.90;;;;;;5268712;28;20184;-73
2021/01/28 11:21:43;;;;;;;13.07;6.87;;;2.90;99.90;;;;;;5250577;28;20211;-72
2021/01/28 11:24:15;;;;;;;11.30;6.77;;;2.90;99.90;;;;;;5267995;28;20204;-73
2021/01/28 11:30:18;;;;;;;13.93;7.17;;;2.70;99.90;;;;;;5266315;28;20183;-77
2021/01/28 11:32:51;;;;;;;10.67;6.67;;;2.60;99.90;;;;;;5264525;28;20207;-77
2021/01/28 11:35:25;;;;;;;15.33;6.87;;;2.50;99.90;;;;;;5254237;28;20586;-78
2021/01/28 11:38:01;;;;;;;9.90;6.00;;;2.40;99.90;;;;;;5271805;28;20192;-77
2021/01/28 11:40:34;;;;;;;11.13;6.60;;;2.20;99.90;;;;;;5272580;28;20570;-78
2021/01/28 11:46:53;;;;;;;11.73;7.00;;;2.00;99.90;;;;;;5271608;28;20693;-73
2021/01/28 11:49:25;;;;;;;12.87;6.67;;;1.80;99.90;;;;;;5275792;28;20210;-73
2021/01/28 11:51:56;;;;;;;12.23;6.57;;;1.80;99.90;;;;;;5289797;28;20190;-74
2021/01/28 11:54:28;;;;;;;9.93;5.93;;;1.80;99.90;;;;;;5277987;28;20254;-77
2021/01/28 12:01:29;;;;;;;8.27;4.43;;;2.00;99.90;;;;;;5272380;28;20195;-75
2021/01/28 12:04:01;;;;;;;6.00;3.90;;;2.20;99.90;;;;;;5271487;28;20211;-78
2021/01/28 12:06:32;;;;;;;9.20;4.20;;;2.30;99.90;;;;;;5271944;28;20540;-75
2021/01/28 12:09:04;;;;;;;8.67;4.17;;;2.40;99.90;;;;;;5280620;28;20406;-74
2021/01/28 12:11:35;;;;;;;9.23;4.43;;;2.50;99.90;;;;;;5271460;28;20425;-76
2021/01/28 12:18:03;;;;;;;5.13;2.60;;;2.70;99.90;;;;;;5271843;28;20230;-75
2021/01/28 12:20:34;;;;;;;7.20;3.30;;;2.20;99.90;;;;;;5279067;28;20227;-76
2021/01/28 12:23:06;;;;;;;6.27;3.30;;;1.90;99.90;;;;;;5271568;28;20195;-73
2021/01/28 12:25:49;;;;;;;6.23;2.63;;;1.90;99.90;;;;;;5271978;28;20228;-75
2021/01/28 12:28:20;;;;;;;4.53;2.63;;;2.00;99.90;;;;;;5249650;28;20192;-71
2021/01/28 12:30:53;;;;;;;5.03;2.83;;;2.20;99.90;;;;;;5271740;28;20253;-76
2021/01/28 12:33:24;;;;;;;7.37;3.17;;;2.40;99.90;;;;;;5270725;28;20220;-78
2021/01/28 12:35:56;;;;;;;8.20;3.67;;;2.70;99.90;;;;;;5252491;28;20301;-77
2021/01/28 12:38:28;;;;;;;6.37;3.10;;;2.90;99.90;;;;;;5271610;28;20275;-77
2021/01/28 12:41:00;;;;;;;10.17;3.37;;;3.20;99.90;;;;;;5272221;28;20216;-79
2021/01/28 12:43:32;;;;;;;5.40;2.40;;;3.60;99.90;;;;;;5270388;28;20279;-77
2021/01/28 12:46:06;;;;;;;5.57;2.53;;;3.70;99.90;;;;;;5253621;28;20218;-76
2021/01/28 12:48:38;;;;;;;3.17;2.10;;;3.70;99.90;;;;;;5270575;28;20193;-77
2021/01/28 12:51:10;;;;;;;4.70;2.60;;;3.50;99.90;;;;;;5270596;28;20232;-77
2021/01/28 12:53:42;;;;;;;7.10;2.90;;;3.30;99.90;;;;;;5271016;28;20611;-74
2021/01/28 12:56:14;;;;;;;6.70;2.20;;;3.20;99.90;;;;;;5236264;28;20206;-78
2021/01/28 12:58:46;;;;;;;7.40;2.33;;;3.00;99.90;;;;;;5269412;28;20234;-77
2021/01/28 13:01:20;;;;;;;5.93;2.60;;;2.80;99.90;;;;;;5271736;28;20609;-76
2021/01/28 13:03:52;;;;;;;4.73;1.97;;;2.80;99.90;;;;;;5269394;28;20211;-75
2021/01/28 13:06:24;;;;;;;6.03;2.67;;;2.70;99.90;;;;;;5268567;28;20192;-74
2021/01/28 13:08:57;;;;;;;7.23;2.40;;;2.60;99.90;;;;;;5269026;28;20220;-73
2021/01/28 13:11:28;;;;;;;6.00;2.87;;;2.80;99.90;;;;;;5268467;28;20339;-73
2021/01/28 13:14:00;;;;;;;5.97;2.50;;;2.80;99.90;;;;;;5268926;28;20242;-74
2021/01/28 13:16:32;;;;;;;4.87;2.40;;;2.70;99.90;;;;;;5267540;28;20277;-74
2021/01/28 13:19:04;;;;;;;5.20;2.53;;;2.50;99.90;;;;;;5246627;28;20211;-76
2021/01/28 13:21:36;;;;;;;4.53;2.40;;;2.40;99.90;;;;;;5249659;28;20770;-74
2021/01/28 13:24:11;;;;;;;7.40;3.10;;;2.20;99.90;;;;;;5269022;28;20486;-75
2021/01/28 13:26:43;;;;;;;7.20;2.90;;;2.10;99.90;;;;;;5271636;28;20208;-74
2021/01/28 13:29:15;;;;;;;5.83;2.70;;;2.00;99.90;;;;;;5270679;28;20245;-75
2021/01/28 13:31:47;;;;;;;5.53;2.90;;;2.00;99.90;;;;;;5269488;28;20199;-74
2021/01/28 13:34:19;;;;;;;5.63;2.33;;;2.00;99.90;;;;;;5252578;28;20204;-75
2021/01/28 13:36:50;;;;;;;6.87;2.97;;;1.90;99.90;;;;;;5272662;28;20230;-76
2021/01/28 13:39:22;;;;;;;7.33;2.73;;;1.90;99.90;;;;;;5270336;28;20188;-75
2021/01/28 13:41:54;;;;;;;6.17;2.50;;;1.80;99.90;;;;;;5271117;28;20706;-75
2021/01/28 13:44:26;;;;;;;5.70;2.63;;;1.80;99.90;;;;;;5268972;28;20260;-75
2021/01/28 13:46:58;;;;;;;5.83;2.53;;;1.80;99.90;;;;;;5269643;28;20726;-73
2021/01/28 13:49:30;;;;;;;5.60;2.33;;;1.80;99.90;;;;;;5265708;28;20184;-75
2021/01/28 13:52:01;;;;;;;4.87;2.30;;;1.70;99.90;;;;;;5267704;28;20192;-74
2021/01/28 13:54:33;;;;;;;4.67;2.47;;;1.70;99.90;;;;;;5267818;28;20192;-78
2021/01/28 13:57:04;;;;;;;4.90;2.40;;;1.70;99.90;;;;;;5267978;28;20199;-74
2021/01/28 13:59:38;;;;;;;6.97;2.10;;;1.60;99.90;;;;;;5273815;28;20199;-78
2021/01/28 14:02:09;;;;;;;5.93;2.30;;;1.50;99.90;;;;;;5269771;28;20287;-78
2021/01/28 14:04:41;;;;;;;4.20;2.40;;;1.50;99.90;;;;;;5271231;28;20265;-78
2021/01/28 14:07:16;;;;;;;7.53;2.50;;;1.60;99.90;;;;;;5270018;28;20661;-78
2021/01/28 14:09:48;;;;;;;9.07;3.10;;;1.60;99.90;;;;;;5251945;28;20242;-78
2021/01/28 14:12:19;;;;;;;6.63;2.97;;;1.60;99.90;;;;;;5269363;28;20348;-75
2021/01/28 14:14:51;;;;;;;7.83;2.80;;;1.50;99.90;;;;;;5270276;28;20246;-75
2021/01/28 14:17:22;;;;;;;7.30;2.93;;;1.40;99.90;;;;;;5269078;28;20702;-75
2021/01/28 14:19:54;;;;;;;5.97;3.23;;;1.40;99.90;;;;;;5268979;28;20560;-72
2021/01/28 14:22:26;;;;;;;4.53;2.40;;;1.30;99.90;;;;;;5269298;28;20191;-77
2021/01/28 14:25:01;;;;;;;7.13;3.13;;;1.20;99.90;;;;;;5268795;28;20207;-77
2021/01/28 14:27:32;;;;;;;6.30;3.23;;;1.00;99.90;;;;;;5269244;28;20189;-81